Time;durP1;ratioP1;P1;durP2;ratioP2;P2;SDS_P1;SDS_P2;PMS_P1;PMS_P2;Temp;Humidity;BMP_temperature;BMP_pressure;BME280_temperature;BME280_humidity;BME280_pressure;Samples;Min_cycle;Max_cycle;Signal;HPM_P1;HPM_P2
2022/10/02 00:01:56;;;;;;;8.10;2.23;;;12.30;99.90;;;12.85;100.00;98341.13;5052094;28;20823;-86
2022/10/02 00:04:37;;;;;;;9.90;2.00;;;12.30;99.90;;;12.83;100.00;98351.03;5053716;28;20453;-86
2022/10/02 00:07:11;;;;;;;9.43;2.20;;;12.20;99.90;;;12.84;100.00;98350.03;5053533;28;20439;-86
2022/10/02 00:09:47;;;;;;;15.00;2.87;;;12.20;99.90;;;12.83;100.00;98356.28;5052863;28;20537;-86
2022/10/02 00:12:23;;;;;;;21.10;2.17;;;12.30;99.90;;;12.84;100.00;98365.78;5054595;28;20436;-87
2022/10/02 00:15:00;;;;;;;20.43;2.20;;;12.20;99.90;;;12.83;100.00;98356.28;5052905;28;21042;-86
2022/10/02 00:17:39;;;;;;;6.20;2.03;;;12.30;99.90;;;12.84;100.00;98360.53;5053547;28;20479;-85
2022/10/02 00:20:14;;;;;;;11.70;2.33;;;12.30;99.90;;;12.83;100.00;98375.47;5053840;28;21340;-86
2022/10/02 00:22:53;;;;;;;14.33;2.30;;;12.20;99.90;;;12.84;100.00;98352.66;5036599;28;20881;-85
2022/10/02 00:25:33;;;;;;;12.47;2.30;;;12.20;99.90;;;12.83;100.00;98361.53;5055421;28;20453;-86
2022/10/02 00:28:17;;;;;;;8.97;2.10;;;12.20;99.90;;;12.82;100.00;98352.03;5054015;28;20469;-86
2022/10/02 00:31:21;;;;;;;16.20;2.07;;;12.20;99.90;;;12.81;100.00;98372.22;5054361;28;20456;-86
2022/10/02 00:34:08;;;;;;;13.57;2.00;;;12.20;99.90;;;12.81;100.00;98360.91;5053418;28;20783;-85
2022/10/02 00:36:54;;;;;;;13.43;2.07;;;12.20;99.90;;;12.80;100.00;98377.66;5054632;28;20460;-86
2022/10/02 00:39:44;;;;;;;11.13;2.27;;;12.20;99.90;;;12.81;100.00;98358.28;5036528;28;20568;-85
2022/10/02 00:42:49;;;;;;;7.03;2.03;;;12.20;99.90;;;12.79;100.00;98373.41;5055224;28;20535;-86
2022/10/02 00:46:10;;;;;;;9.83;2.20;;;12.10;99.90;;;12.78;100.00;98362.09;5051704;28;20460;-86
2022/10/02 00:48:58;;;;;;;16.13;2.03;;;12.20;99.90;;;12.78;100.00;98356.03;5037187;28;20488;-86
2022/10/02 00:51:52;;;;;;;15.90;2.17;;;12.10;99.90;;;12.77;100.00;98360.50;5055211;28;20551;-85
2022/10/02 00:54:58;;;;;;;14.93;2.47;;;12.20;99.90;;;12.80;100.00;98375.03;5034676;28;20556;-86
2022/10/02 00:57:52;;;;;;;21.63;2.50;;;12.20;99.90;;;12.78;100.00;98367.34;5014485;28;20516;-86
2022/10/02 01:00:23;;;;;;;9.63;2.70;;;12.20;99.90;;;12.80;100.00;98356.69;5034356;28;20503;-86
2022/10/02 01:03:16;;;;;;;16.53;2.13;;;12.20;99.90;;;12.81;100.00;98356.47;5051051;28;20464;-86
2022/10/02 01:05:45;;;;;;;9.23;2.00;;;12.20;99.90;;;12.82;100.00;98365.97;5051435;28;20536;-85
2022/10/02 01:08:17;;;;;;;9.70;2.37;;;12.20;99.90;;;12.81;100.00;98372.22;5052982;28;20533;-86
2022/10/02 01:10:47;;;;;;;4.87;2.10;;;12.30;99.90;;;12.81;100.00;98363.53;5022876;28;20835;-85
2022/10/02 01:13:16;;;;;;;6.13;1.90;;;12.20;99.90;;;12.81;100.00;98364.34;5054568;28;20450;-86
2022/10/02 01:15:53;;;;;;;6.30;1.70;;;12.20;99.90;;;12.81;100.00;98379.28;5053787;28;20943;-86
2022/10/02 01:18:22;;;;;;;15.10;1.83;;;12.20;99.90;;;12.81;100.00;98366.97;5053532;28;20962;-85
2022/10/02 01:20:54;;;;;;;27.80;3.37;;;12.30;99.90;;;12.80;100.00;98365.38;5053508;28;20605;-85
2022/10/02 01:23:39;;;;;;;7.57;1.93;;;12.20;99.90;;;12.81;100.00;98374.84;5050650;28;20441;-85
2022/10/02 01:26:09;;;;;;;5.70;1.83;;;12.20;99.90;;;12.82;100.00;98375.66;5054677;28;20461;-86
2022/10/02 01:28:40;;;;;;;10.17;2.10;;;12.20;99.90;;;12.82;100.00;98371.22;5054815;28;20535;-84
2022/10/02 01:31:13;;;;;;;3.77;1.93;;;12.20;99.90;;;12.85;100.00;98372.63;5051871;28;20460;-85
2022/10/02 01:33:47;;;;;;;13.10;2.03;;;12.20;99.90;;;12.85;100.00;98381.31;5050029;28;20460;-86
2022/10/02 01:36:17;;;;;;;18.93;2.30;;;12.20;99.90;;;12.85;100.00;98385.75;5055128;28;20547;-86
2022/10/02 01:38:48;;;;;;;9.80;2.60;;;12.20;99.90;;;12.85;100.00;98375.25;5059541;28;20448;-85
2022/10/02 01:41:19;;;;;;;12.90;2.77;;;12.20;99.90;;;12.85;100.00;98370.00;5051984;28;21015;-86
2022/10/02 01:43:52;;;;;;;18.53;1.87;;;12.20;99.90;;;12.85;100.00;98370.00;5058267;28;20576;-85
2022/10/02 01:46:35;;;;;;;11.10;1.67;;;12.20;99.90;;;12.86;100.00;98371.63;5055140;28;20446;-86
2022/10/02 01:49:42;;;;;;;7.20;2.10;;;12.20;99.90;;;12.86;100.00;98367.22;5038446;28;20825;-85
2022/10/02 01:52:27;;;;;;;10.20;2.13;;;12.30;99.90;;;12.87;100.00;98373.28;5057776;28;20481;-85
2022/10/02 01:55:18;;;;;;;16.87;2.40;;;12.30;99.90;;;12.87;100.00;98368.03;5056466;28;20437;-85
2022/10/02 01:58:06;;;;;;;4.43;2.10;;;12.20;99.90;;;12.87;100.00;98368.84;5058098;28;20497;-85
2022/10/02 02:00:55;;;;;;;7.80;1.80;;;12.20;99.90;;;12.86;100.00;98367.22;5056123;28;20579;-85
2022/10/02 02:03:38;;;;;;;5.97;1.73;;;12.20;99.90;;;12.85;100.00;98376.06;5057613;28;20541;-85
2022/10/02 02:06:21;;;;;;;9.23;2.90;;;12.20;99.90;;;12.86;100.00;98376.88;5051789;28;20453;-86
2022/10/02 02:09:04;;;;;;;8.97;2.10;;;12.20;99.90;;;12.87;100.00;98370.66;5054107;28;20559;-85
2022/10/02 02:11:38;;;;;;;7.10;2.47;;;12.20;99.90;;;12.87;100.00;98368.03;5040875;28;20444;-85
2022/10/02 02:14:17;;;;;;;7.43;2.70;;;12.20;99.90;;;12.83;100.00;98377.28;5052802;28;20482;-85
2022/10/02 02:16:52;;;;;;;13.83;2.70;;;12.10;99.90;;;12.84;100.00;98373.66;5055133;28;20465;-86
2022/10/02 02:19:29;;;;;;;9.17;2.13;;;12.10;99.90;;;12.86;100.00;98371.63;5054211;28;21079;-85
2022/10/02 02:22:06;;;;;;;8.23;2.33;;;12.10;99.90;;;12.84;100.00;98363.94;5052343;28;21418;-86
2022/10/02 02:24:43;;;;;;;9.17;1.77;;;12.20;99.90;;;12.85;100.00;98364.75;5051856;28;20468;-86
2022/10/02 02:27:20;;;;;;;11.37;2.13;;;12.10;99.90;;;12.86;100.00;98363.75;5035956;28;20574;-85
2022/10/02 02:29:58;;;;;;;9.10;2.77;;;12.20;99.90;;;12.85;100.00;98360.31;5053417;28;20456;-85
2022/10/02 02:32:35;;;;;;;5.90;2.20;;;12.10;99.90;;;12.85;100.00;98365.56;5051481;28;20465;-84
2022/10/02 02:35:16;;;;;;;6.50;1.90;;;12.20;99.90;;;12.87;100.00;98378.53;5053921;28;20464;-85
2022/10/02 02:37:50;;;;;;;9.53;2.70;;;12.20;99.90;;;12.87;100.00;98368.03;5053309;28;20469;-84
2022/10/02 02:40:24;;;;;;;5.80;1.90;;;12.20;99.90;;;12.88;100.00;98369.63;5053953;28;20488;-85
2022/10/02 02:43:03;;;;;;;16.07;2.10;;;12.20;99.90;;;12.88;100.00;98361.75;5051117;28;20601;-85
2022/10/02 02:45:39;;;;;;;21.10;2.93;;;12.30;99.90;;;12.89;100.00;98376.50;5052959;28;20588;-85
2022/10/02 02:48:16;;;;;;;26.47;3.97;;;12.40;99.90;;;12.88;100.00;98365.19;5052250;28;20460;-85
2022/10/02 02:50:51;;;;;;;15.23;2.00;;;12.30;99.90;;;12.91;100.00;98371.88;5051987;28;20469;-85
2022/10/02 02:53:29;;;;;;;7.60;2.40;;;12.30;99.90;;;12.90;100.00;98368.44;5052675;28;20567;-85
2022/10/02 02:56:02;;;;;;;11.83;1.90;;;12.30;99.90;;;12.92;100.00;98371.66;5052913;28;20478;-86
2022/10/02 02:58:40;;;;;;;18.30;2.70;;;12.30;99.90;;;12.95;100.00;98380.97;5048674;28;20544;-85
2022/10/02 03:01:11;;;;;;;30.63;4.23;;;12.40;99.90;;;12.94;100.00;98382.00;5050674;28;20492;-85
2022/10/02 03:03:40;;;;;;;17.80;3.00;;;12.50;99.90;;;12.97;100.00;98378.97;5052526;28;20481;-86
2022/10/02 03:06:32;;;;;;;12.20;2.57;;;12.40;99.90;;;12.98;100.00;98370.09;5050529;28;20501;-85
2022/10/02 03:09:02;;;;;;;13.77;2.87;;;12.50;99.90;;;12.99;100.00;98371.72;5053780;28;20452;-86
2022/10/02 03:11:51;;;;;;;11.60;3.23;;;12.50;99.90;;;13.00;100.00;98379.41;5052657;28;20465;-84
2022/10/02 03:15:01;;;;;;;14.63;2.90;;;12.50;99.90;;;12.99;100.00;98388.28;5050552;28;20529;-85
2022/10/02 03:17:51;;;;;;;15.43;3.20;;;12.50;99.90;;;13.01;100.00;98385.47;5031721;28;20564;-86
2022/10/02 03:20:35;;;;;;;17.90;2.70;;;12.60;99.90;;;13.00;100.00;98384.66;5049943;28;20468;-86
2022/10/02 03:23:17;;;;;;;25.10;3.20;;;12.50;99.90;;;13.01;100.00;98388.09;5052507;28;20480;-85
2022/10/02 03:25:54;;;;;;;14.90;2.47;;;12.50;99.90;;;13.00;100.00;98389.91;5050560;28;20556;-84
2022/10/02 03:28:33;;;;;;;10.67;2.73;;;12.50;99.90;;;13.02;100.00;98384.44;5014925;28;20454;-85
2022/10/02 03:31:26;;;;;;;6.30;2.57;;;12.50;99.90;;;13.01;100.00;98386.28;5045890;28;20461;-86
2022/10/02 03:34:00;;;;;;;10.77;2.97;;;12.50;99.90;;;13.00;100.00;98382.03;5051719;28;20520;-85
2022/10/02 03:36:30;;;;;;;8.90;2.00;;;12.50;99.90;;;13.02;100.00;98398.38;5053934;28;20465;-85
2022/10/02 03:39:05;;;;;;;8.20;2.10;;;12.60;99.90;;;13.01;100.00;98390.72;5050633;28;20489;-85
2022/10/02 03:41:53;;;;;;;4.83;2.50;;;12.50;99.90;;;13.01;100.00;98393.34;5053169;28;21041;-85
2022/10/02 03:44:23;;;;;;;11.43;2.03;;;12.50;99.90;;;13.03;100.00;98396.56;5050921;28;20955;-85
2022/10/02 03:46:52;;;;;;;7.30;2.13;;;12.60;99.90;;;13.01;100.00;98398.59;5049427;28;20493;-85
2022/10/02 03:49:23;;;;;;;7.53;1.70;;;12.50;99.90;;;13.01;100.00;98394.16;5054157;28;20484;-85
2022/10/02 03:51:52;;;;;;;6.27;2.10;;;12.50;99.90;;;13.01;100.00;98402.03;5038766;28;21144;-86
2022/10/02 03:54:22;;;;;;;11.47;2.00;;;12.50;99.90;;;13.02;100.00;98397.56;5054232;28;20461;-85
2022/10/02 03:56:56;;;;;;;5.03;1.43;;;12.50;99.90;;;13.01;100.00;98390.72;5056777;28;21202;-85
2022/10/02 03:59:41;;;;;;;7.20;2.00;;;12.50;99.90;;;13.02;100.00;98392.31;5034115;28;20478;-84
2022/10/02 04:02:27;;;;;;;8.03;1.97;;;12.50;99.90;;;13.02;100.00;98402.81;5054975;28;20588;-84
2022/10/02 04:05:11;;;;;;;8.70;2.23;;;12.50;99.90;;;13.01;100.00;98394.16;5053619;28;20458;-85
2022/10/02 04:07:46;;;;;;;14.90;2.17;;;12.40;99.90;;;13.02;100.00;98393.13;5049297;28;20449;-85
2022/10/02 04:10:32;;;;;;;26.70;2.43;;;12.40;99.90;;;13.01;100.00;98393.34;5050797;28;20574;-85
2022/10/02 04:13:12;;;;;;;6.70;1.83;;;12.40;99.90;;;13.03;100.00;98396.56;5049490;28;20456;-85
2022/10/02 04:16:04;;;;;;;13.20;3.20;;;12.40;99.90;;;13.03;100.00;98386.88;5049612;28;20528;-85
2022/10/02 04:18:42;;;;;;;10.87;1.97;;;12.50;99.90;;;13.03;100.00;98388.69;5053602;28;20838;-86
2022/10/02 04:21:24;;;;;;;6.40;2.00;;;12.50;99.90;;;13.02;100.00;98382.63;5049973;28;20470;-85
2022/10/02 04:24:03;;;;;;;5.57;1.90;;;12.50;99.90;;;13.02;100.00;98387.06;5051065;28;20543;-84
2022/10/02 04:26:41;;;;;;;6.87;2.40;;;12.50;99.90;;;13.02;100.00;98381.81;5052432;28;20470;-85
2022/10/02 04:29:22;;;;;;;6.47;1.57;;;12.50;99.90;;;13.01;100.00;98381.03;5050670;28;20481;-85
2022/10/02 04:31:59;;;;;;;6.83;1.57;;;12.50;99.90;;;13.01;100.00;98382.84;5030932;28;20465;-85
2022/10/02 04:34:29;;;;;;;4.50;1.50;;;12.40;99.90;;;13.01;100.00;98380.22;5050514;28;20882;-85
2022/10/02 04:37:21;;;;;;;5.77;1.80;;;12.40;99.90;;;13.01;100.00;98390.72;5052731;28;20470;-85
2022/10/02 04:40:11;;;;;;;4.60;1.63;;;12.40;99.90;;;13.02;100.00;98397.56;5052140;28;20484;-84
2022/10/02 04:43:01;;;;;;;6.97;1.57;;;12.40;99.90;;;13.01;100.00;98396.78;5053275;28;20523;-85
2022/10/02 04:45:54;;;;;;;3.47;1.20;;;12.50;99.90;;;13.01;100.00;98390.72;5050765;28;20973;-85
2022/10/02 04:48:59;;;;;;;7.00;2.43;;;12.40;99.90;;;13.01;100.00;98396.78;5039167;28;20500;-85
2022/10/02 04:51:53;;;;;;;5.23;1.80;;;12.40;99.90;;;13.00;100.00;98384.66;5050402;28;20473;-85
2022/10/02 04:55:02;;;;;;;5.03;1.57;;;12.50;99.90;;;13.00;100.00;98389.91;5051817;28;20824;-85
2022/10/02 04:57:54;;;;;;;6.33;1.67;;;12.40;99.90;;;12.99;100.00;98390.09;5052131;28;20520;-85
2022/10/02 05:00:32;;;;;;;4.93;1.80;;;12.50;99.90;;;12.98;100.00;98378.78;5054901;28;20837;-85
2022/10/02 05:03:25;;;;;;;3.07;1.43;;;12.40;99.90;;;12.98;100.00;98380.59;5038255;28;20480;-85
2022/10/02 05:06:20;;;;;;;3.90;1.97;;;12.40;99.90;;;12.98;100.00;98391.09;5053703;28;20573;-84
2022/10/02 05:09:10;;;;;;;8.80;1.50;;;12.40;99.90;;;12.98;100.00;98375.34;5049965;28;20500;-85
2022/10/02 05:12:30;;;;;;;9.03;1.77;;;12.40;99.90;;;12.97;100.00;98385.03;5052185;28;20472;-84
2022/10/02 05:15:31;;;;;;;3.77;1.63;;;12.30;99.90;;;12.97;100.00;98373.72;5055058;28;20965;-85
2022/10/02 05:18:37;;;;;;;5.13;1.67;;;12.30;99.90;;;12.96;100.00;98382.59;5058088;28;21183;-85
2022/10/02 05:21:29;;;;;;;3.63;2.70;;;12.30;99.90;;;12.96;100.00;98383.41;5052594;28;20486;-85
2022/10/02 05:24:26;;;;;;;2.40;1.87;;;12.30;99.90;;;12.95;100.00;98386.22;5055634;28;21042;-86
2022/10/02 05:27:55;;;;;;;10.40;2.37;;;12.30;99.90;;;12.95;100.00;98396.72;5052235;28;20794;-85
2022/10/02 05:30:31;;;;;;;1.60;1.50;;;12.30;99.90;;;12.95;100.00;98391.47;5048287;28;20466;-85
2022/10/02 05:33:33;;;;;;;6.93;1.70;;;12.20;99.90;;;12.95;100.00;98386.22;5052987;28;20480;-85
2022/10/02 05:36:27;;;;;;;2.70;2.00;;;12.30;99.90;;;12.94;100.00;98380.19;5051131;28;20495;-84
2022/10/02 05:39:12;;;;;;;3.43;1.80;;;12.30;99.90;;;12.93;100.00;98393.50;5051808;28;20605;-85
2022/10/02 05:41:53;;;;;;;2.50;1.60;;;12.30;99.90;;;12.93;100.00;98383.81;5053984;28;20822;-85
2022/10/02 05:44:34;;;;;;;9.40;2.90;;;12.20;99.90;;;12.94;100.00;98395.13;5052016;28;20497;-85
2022/10/02 05:47:13;;;;;;;7.70;1.60;;;12.30;99.90;;;12.94;100.00;98395.13;5053353;28;20468;-84
2022/10/02 05:49:52;;;;;;;2.10;1.20;;;12.30;99.90;;;12.93;100.00;98389.06;5053335;28;20474;-85
2022/10/02 05:52:30;;;;;;;3.10;1.53;;;12.40;99.90;;;12.93;100.00;98394.31;5050289;28;20469;-85
2022/10/02 05:55:13;;;;;;;5.00;1.33;;;12.30;99.90;;;12.93;100.00;98393.50;5057984;28;21321;-84
2022/10/02 05:57:51;;;;;;;2.50;1.43;;;12.30;99.90;;;12.93;100.00;98396.94;5053611;28;20544;-85
2022/10/02 06:00:32;;;;;;;2.23;1.60;;;12.40;99.90;;;12.92;100.00;98391.84;5052833;28;20462;-84
2022/10/02 06:03:15;;;;;;;5.40;1.67;;;12.30;99.90;;;12.92;100.00;98389.22;5055199;28;20516;-85
2022/10/02 06:05:54;;;;;;;2.40;1.20;;;12.30;99.90;;;12.92;100.00;98381.34;5053153;28;20470;-85
2022/10/02 06:08:35;;;;;;;2.43;1.50;;;12.30;99.90;;;12.91;100.00;98377.13;5051506;28;20495;-85
2022/10/02 06:11:14;;;;;;;1.70;1.07;;;12.30;99.90;;;12.93;100.00;98383.81;5057686;28;20911;-84
2022/10/02 06:13:49;;;;;;;9.27;1.60;;;12.30;99.90;;;12.93;100.00;98388.25;5052772;28;21021;-85
2022/10/02 06:16:27;;;;;;;6.87;1.93;;;12.20;99.90;;;12.94;100.00;98389.88;5054682;28;20456;-85
2022/10/02 06:19:07;;;;;;;8.87;1.90;;;12.20;99.90;;;12.94;100.00;98389.88;5056574;28;20862;-84
2022/10/02 06:21:47;;;;;;;6.93;1.33;;;12.30;99.90;;;12.93;100.00;98393.50;5054720;28;20555;-85
2022/10/02 06:24:25;;;;;;;5.33;1.20;;;12.30;99.90;;;12.93;100.00;98388.25;5050522;28;20488;-84
2022/10/02 06:27:03;;;;;;;5.70;1.10;;;12.30;99.90;;;12.94;100.00;98379.38;5050630;28;20500;-85
2022/10/02 06:29:42;;;;;;;1.60;1.30;;;12.30;99.90;;;12.94;100.00;98392.50;5071187;28;20546;-84
2022/10/02 06:32:24;;;;;;;1.80;1.30;;;12.30;99.90;;;12.94;100.00;98384.63;5072892;28;20505;-85
2022/10/02 06:34:55;;;;;;;1.90;1.47;;;12.30;99.90;;;12.94;100.00;98398.56;5072062;28;20968;-85
2022/10/02 06:37:38;;;;;;;4.93;2.47;;;12.30;99.90;;;12.94;100.00;98390.69;5070961;28;20559;-85
2022/10/02 06:40:43;;;;;;;4.00;2.10;;;12.30;99.90;;;12.95;100.00;98389.66;5073749;28;20575;-86
2022/10/02 06:43:29;;;;;;;3.60;1.77;;;12.30;99.90;;;12.97;100.00;98385.03;5071737;28;20495;-85
2022/10/02 06:46:14;;;;;;;7.03;2.10;;;12.40;99.90;;;12.97;100.00;98394.72;5072684;28;20459;-86
2022/10/02 06:48:57;;;;;;;1.30;1.20;;;12.30;99.90;;;12.99;100.00;98392.72;5073514;28;20532;-86
2022/10/02 06:51:43;;;;;;;1.40;1.30;;;12.40;99.90;;;12.99;100.00;98387.47;5070874;28;20522;-84
2022/10/02 06:54:48;;;;;;;1.00;0.80;;;12.40;99.90;;;13.01;100.00;98395.97;5072202;28;20512;-84
2022/10/02 06:57:40;;;;;;;1.10;1.00;;;12.40;99.90;;;12.99;100.00;98392.72;5068715;28;20499;-84
2022/10/02 07:00:16;;;;;;;3.53;2.17;;;12.30;99.90;;;13.01;100.00;98388.09;5071269;28;20490;-85
2022/10/02 07:03:52;;;;;;;1.10;1.00;;;12.40;99.90;;;13.02;100.00;98387.06;5073966;28;20462;-85
2022/10/02 07:06:55;;;;;;;7.17;1.60;;;12.30;99.90;;;13.03;100.00;98404.44;4976169;28;20464;-85
2022/10/02 07:09:55;;;;;;;3.13;1.17;;;12.30;99.90;;;13.03;100.00;98399.19;4971444;28;20973;-85
2022/10/02 07:12:57;;;;;;;3.33;1.10;;;12.40;99.90;;;13.04;100.00;98406.06;4979506;28;20935;-84
2022/10/02 07:16:14;;;;;;;6.87;2.10;;;12.40;99.90;;;13.05;100.00;98412.97;5056231;28;20546;-85
2022/10/02 07:19:06;;;;;;;1.40;1.10;;;12.40;99.90;;;13.05;100.00;98410.34;5069387;28;20475;-85
2022/10/02 07:21:49;;;;;;;2.03;1.10;;;12.40;99.90;;;13.04;100.00;98401.66;5070389;28;20896;-84
2022/10/02 07:24:51;;;;;;;9.73;1.20;;;12.40;99.90;;;13.07;100.00;98410.94;5070314;28;20518;-85
2022/10/02 07:27:28;;;;;;;1.00;0.90;;;12.50;99.90;;;13.08;100.00;98407.31;5068364;28;20538;-84
2022/10/02 07:30:04;;;;;;;5.20;1.30;;;12.50;99.90;;;13.09;100.00;98398.44;5069220;28;20499;-83
2022/10/02 07:32:47;;;;;;;1.17;1.07;;;12.50;99.90;;;13.10;100.00;98394.81;5070607;28;20515;-83
2022/10/02 07:35:38;;;;;;;2.03;1.10;;;12.60;99.90;;;13.10;100.00;98402.69;5069179;28;20487;-83
2022/10/02 07:42:15;;;;;;;1.90;1.43;;;12.50;99.90;;;13.13;100.00;98394.44;5069654;28;21221;-83
2022/10/02 07:45:17;;;;;;;1.30;1.20;;;12.40;99.90;;;13.14;100.00;98406.56;5038562;28;21263;-84
2022/10/02 07:48:36;;;;;;;2.70;2.30;;;12.50;99.90;;;13.15;100.00;98408.19;5069045;28;20566;-80
2022/10/02 07:51:49;;;;;;;1.40;1.03;;;12.50;99.90;;;13.15;100.00;98413.44;5040529;28;20588;-81
2022/10/02 07:54:55;;;;;;;1.10;1.00;;;12.50;99.90;;;13.17;100.00;98421.13;5072069;28;20941;-82
2022/10/02 07:57:40;;;;;;;1.50;1.10;;;12.60;99.90;;;13.18;100.00;98430.63;5070478;28;20463;-82
2022/10/02 08:00:15;;;;;;;1.47;0.97;;;12.50;99.90;;;13.18;100.00;98434.06;5069992;28;20464;-82
2022/10/02 08:02:51;;;;;;;1.00;0.90;;;12.60;99.90;;;13.20;100.00;98420.72;5071035;28;20521;-82
2022/10/02 08:05:26;;;;;;;1.53;1.00;;;12.60;99.90;;;13.20;100.00;98416.28;5057723;28;20563;-82
2022/10/02 08:08:02;;;;;;;0.77;0.70;;;12.60;99.90;;;13.19;100.00;98419.91;5064188;28;20491;-83
2022/10/02 08:10:38;;;;;;;0.90;0.80;;;12.60;99.90;;;13.21;100.00;98427.59;5067454;28;20459;-83
2022/10/02 08:13:19;;;;;;;1.03;0.93;;;12.60;99.90;;;13.22;100.00;98427.44;5072915;28;20533;-83
2022/10/02 08:15:55;;;;;;;0.80;0.70;;;12.70;99.90;;;13.23;100.00;98413.25;5071159;28;20451;-83
2022/10/02 08:18:33;;;;;;;1.10;0.90;;;12.70;99.90;;;13.21;100.00;98415.28;5069229;28;20470;-83
2022/10/02 08:21:13;;;;;;;0.90;0.80;;;12.60;99.90;;;13.20;100.00;98429.41;5071406;28;20465;-83
2022/10/02 08:23:52;;;;;;;11.13;4.57;;;12.50;99.90;;;13.21;100.00;98440.75;5053936;28;20498;-83
2022/10/02 08:26:30;;;;;;;1.13;1.00;;;12.60;99.90;;;13.23;100.00;98436.91;5071276;28;20479;-84
2022/10/02 08:29:15;;;;;;;1.00;0.90;;;12.70;99.90;;;13.24;100.00;98414.09;5067764;28;20958;-83
2022/10/02 08:31:45;;;;;;;1.00;0.90;;;12.70;99.90;;;13.22;100.00;98430.06;5067347;28;20468;-83
2022/10/02 08:34:21;;;;;;;1.00;0.87;;;12.60;99.90;;;13.22;100.00;98427.44;5070553;28;20945;-84
2022/10/02 08:37:20;;;;;;;3.73;0.87;;;12.60;99.90;;;13.22;100.00;98432.69;5066850;28;20456;-82
2022/10/02 08:40:28;;;;;;;3.10;1.23;;;12.60;99.90;;;13.25;100.00;98428.84;5067682;28;20491;-82
2022/10/02 08:43:53;;;;;;;0.97;0.80;;;12.60;99.90;;;13.27;100.00;98422.38;5073341;28;20464;-83
2022/10/02 08:47:27;;;;;;;1.00;0.70;;;12.70;99.90;;;13.30;100.00;98424.63;5072517;28;20534;-83
2022/10/02 08:50:43;;;;;;;2.60;0.90;;;12.70;99.90;;;13.30;100.00;98437.75;5070587;28;20498;-83
2022/10/02 08:54:03;;;;;;;4.10;0.80;;;12.70;99.90;;;13.32;100.00;98434.94;5069136;28;20981;-82
2022/10/02 08:56:51;;;;;;;1.03;0.80;;;12.70;99.90;;;13.33;100.00;98432.09;5063196;28;20468;-84
2022/10/02 09:00:03;;;;;;;0.70;0.70;;;12.80;99.90;;;13.33;100.00;98432.09;5071384;28;20748;-83
2022/10/02 09:03:44;;;;;;;0.90;0.80;;;12.70;99.90;;;13.36;100.00;98431.72;5065372;28;20469;-84
2022/10/02 09:07:15;;;;;;;1.00;0.80;;;12.70;99.90;;;13.36;100.00;98421.19;5055752;28;20499;-84
2022/10/02 09:10:44;;;;;;;1.00;0.90;;;12.70;99.90;;;13.36;100.00;98423.81;4983967;28;20504;-82
2022/10/02 09:14:08;;;;;;;1.07;0.80;;;12.70;99.90;;;13.37;100.00;98422.84;4976007;28;21008;-82
2022/10/02 09:17:01;;;;;;;1.10;1.00;;;12.80;99.90;;;13.38;100.00;98424.47;5069181;28;20487;-82
2022/10/02 09:19:54;;;;;;;0.80;0.80;;;12.80;99.90;;;13.38;100.00;98418.41;5068178;28;20504;-82
2022/10/02 09:23:22;;;;;;;1.23;0.80;;;12.80;99.90;;;13.40;100.00;98430.31;5068274;28;20492;-84
2022/10/02 09:26:03;;;;;;;1.20;1.10;;;12.80;99.90;;;13.40;100.00;98432.94;4965666;28;20501;-83
2022/10/02 09:29:13;;;;;;;1.70;1.13;;;12.80;99.90;;;13.42;100.00;98425.69;5065650;28;20500;-83
2022/10/02 09:32:52;;;;;;;32.70;18.47;;;12.80;99.90;;;13.43;100.00;98437.03;5066655;28;20465;-84
2022/10/02 09:36:11;;;;;;;1.73;1.43;;;12.80;99.90;;;13.44;100.00;98433.38;5072291;28;20551;-84
2022/10/02 09:39:23;;;;;;;1.50;1.20;;;12.80;99.90;;;13.46;100.00;98421.69;5068806;28;20570;-84
2022/10/02 09:42:54;;;;;;;1.07;0.97;;;12.80;99.90;;;13.48;100.00;98421.47;5069052;28;21009;-85
2022/10/02 09:46:01;;;;;;;5.53;3.13;;;12.90;99.90;;;13.48;100.00;98418.84;5064730;28;20495;-84
2022/10/02 09:49:15;;;;;;;1.53;1.10;;;12.80;99.90;;;13.45;100.00;98425.31;5064001;28;20499;-84
2022/10/02 09:52:32;;;;;;;0.93;0.90;;;12.80;99.90;;;13.47;100.00;98431.16;5037288;28;20472;-84
2022/10/02 09:56:04;;;;;;;1.47;0.80;;;12.90;99.90;;;13.51;100.00;98423.69;5056936;28;20541;-83
2022/10/02 09:59:43;;;;;;;1.00;0.90;;;12.90;99.90;;;13.52;100.00;98414.81;5075929;28;20961;-84
2022/10/02 10:02:41;;;;;;;1.10;1.00;;;12.90;99.90;;;13.54;100.00;98431.19;5076531;28;20451;-85
2022/10/02 10:05:50;;;;;;;1.00;0.80;;;12.90;99.90;;;13.58;100.00;98435.84;5076204;28;20488;-83
2022/10/02 10:09:08;;;;;;;1.17;0.90;;;13.00;99.90;;;13.64;100.00;98422.97;5077245;28;20498;-84
2022/10/02 10:12:48;;;;;;;4.10;1.10;;;13.00;99.90;;;13.67;100.00;98425.19;5074173;28;20572;-84
2022/10/02 10:16:22;;;;;;;1.20;1.10;;;13.10;99.90;;;13.71;100.00;98418.53;5071425;28;20556;-85
2022/10/02 10:20:08;;;;;;;2.10;1.43;;;13.20;99.90;;;13.73;100.00;98419.94;5067911;28;20578;-84
2022/10/02 10:23:13;;;;;;;3.00;1.43;;;13.20;99.90;;;13.79;100.00;98423.59;4964451;28;20515;-84
2022/10/02 10:26:38;;;;;;;1.17;1.07;;;13.20;99.90;;;13.83;100.00;98427.44;4983014;28;20505;-90
2022/10/02 10:29:56;;;;;;;9.70;4.70;;;13.30;99.90;;;13.89;100.00;98427.47;5021064;28;20489;-83
2022/10/02 10:33:23;;;;;;;1.70;1.20;;;13.30;99.90;;;13.93;100.00;98431.31;5008501;28;20470;-86
2022/10/02 10:40:27;;;;;;;1.43;1.17;;;13.40;99.90;;;14.01;100.00;98435.59;4982522;28;20555;-82
2022/10/02 10:43:54;;;;;;;1.47;1.10;;;13.40;99.90;;;14.04;100.00;98435.19;5021016;28;20489;-83
2022/10/02 10:47:30;;;;;;;1.10;1.00;;;13.50;99.90;;;14.07;100.00;98434.78;5021812;28;20521;-84
2022/10/02 10:50:45;;;;;;;1.93;1.00;;;13.50;99.90;;;14.05;100.00;98439.44;5022090;28;20789;-84
2022/10/02 10:53:58;;;;;;;1.33;1.13;;;13.50;99.90;;;14.07;100.00;98432.97;5019255;28;20811;-84
2022/10/02 10:56:46;;;;;;;1.97;1.13;;;13.60;99.90;;;14.10;100.00;98443.09;5021687;28;20500;-84
2022/10/02 11:00:01;;;;;;;1.30;1.20;;;13.60;99.90;;;14.13;100.00;98445.31;5022138;28;20466;-84
2022/10/02 11:03:22;;;;;;;1.90;1.50;;;13.60;99.90;;;14.13;100.00;98462.91;5021006;28;20447;-84
2022/10/02 11:06:18;;;;;;;1.20;1.10;;;13.60;99.90;;;14.14;100.00;98459.28;5006122;28;20580;-84
2022/10/02 11:09:38;;;;;;;1.47;1.30;;;13.60;99.90;;;14.17;100.00;98461.50;5022877;28;21044;-83
2022/10/02 11:12:59;;;;;;;1.90;1.10;;;13.70;99.90;;;14.19;100.00;98458.69;5023136;28;20494;-84
2022/10/02 11:16:12;;;;;;;3.00;1.50;;;13.60;99.90;;;14.19;100.00;98458.69;5022403;28;20454;-84
2022/10/02 11:19:31;;;;;;;2.40;1.20;;;13.60;99.90;;;14.19;100.00;98464.78;5022510;28;20469;-84
2022/10/02 11:23:00;;;;;;;1.30;0.90;;;13.60;99.90;;;14.20;100.00;98463.75;5012237;28;20466;-84
2022/10/02 11:25:54;;;;;;;1.13;0.80;;;13.60;99.90;;;14.21;100.00;98461.94;5021347;28;20597;-84
2022/10/02 11:29:02;;;;;;;1.10;1.00;;;13.60;99.90;;;14.21;100.00;98459.28;5022574;28;20517;-84
2022/10/02 11:32:08;;;;;;;2.93;0.90;;;13.60;99.90;;;14.20;100.00;98458.47;5023055;28;20464;-84
2022/10/02 11:35:21;;;;;;;1.20;0.90;;;13.60;99.90;;;14.23;100.00;98458.06;5021317;28;20474;-84
2022/10/02 11:38:18;;;;;;;1.23;0.80;;;13.60;99.90;;;14.24;100.00;98449.19;5023542;28;21368;-84
2022/10/02 11:41:22;;;;;;;1.03;0.93;;;13.70;99.90;;;14.24;100.00;98449.19;5020989;28;20478;-83
2022/10/02 11:44:12;;;;;;;1.83;0.90;;;13.60;99.90;;;14.26;100.00;98451.63;5016185;28;20520;-85
2022/10/02 11:47:31;;;;;;;0.70;0.70;;;13.60;99.90;;;14.25;100.00;98458.72;5020008;28;20894;-84
2022/10/02 11:50:45;;;;;;;1.40;1.10;;;13.60;99.90;;;14.26;100.00;98464.78;5014613;28;20455;-85
2022/10/02 11:53:52;;;;;;;1.20;1.00;;;13.60;99.90;;;14.27;100.00;98456.66;5005237;28;20552;-84
2022/10/02 11:56:45;;;;;;;1.60;1.20;;;13.60;99.90;;;14.30;100.00;98464.16;5013809;28;20493;-84
2022/10/02 11:59:47;;;;;;;2.20;1.10;;;13.60;99.90;;;14.31;100.00;98463.16;5018495;28;20450;-84